createdAt,value
2017-04-21T00:00:15.118Z,102075.36
2017-04-21T00:01:16.182Z,102070.57
2017-04-21T00:02:17.161Z,102074.48
2017-04-21T00:03:18.418Z,102063.20
2017-04-21T00:04:19.708Z,102071.45
2017-04-21T00:05:20.655Z,102070.14
2017-04-21T00:06:22.121Z,102063.64
2017-04-21T00:07:23.265Z,102065.38
2017-04-21T00:08:24.588Z,102064.95
2017-04-21T00:09:25.964Z,102059.30
2017-04-21T00:10:26.991Z,102058.45
2017-04-21T00:11:28.161Z,102053.23
2017-04-21T00:12:29.270Z,102056.72
2017-04-21T00:13:30.651Z,102053.67
2017-04-21T00:14:31.936Z,102047.16
2017-04-21T00:15:33.084Z,102050.20
2017-04-21T00:16:34.387Z,102043.67
2017-04-21T00:17:35.429Z,102048.91
2017-04-21T00:18:36.549Z,102046.28
2017-04-21T00:19:37.609Z,102045.44
2017-04-21T00:20:38.799Z,102041.10
2017-04-21T00:21:40.036Z,102046.30
2017-04-21T00:22:41.194Z,102031.11
2017-04-21T00:23:42.360Z,102037.20
2017-04-21T00:24:43.418Z,102032.42
2017-04-21T00:25:44.757Z,102035.45
2017-04-21T00:26:45.976Z,102035.03
2017-04-21T00:27:46.979Z,102029.39
2017-04-21T00:28:48.137Z,102033.28
2017-04-21T00:29:49.495Z,102030.67
2017-04-21T00:30:51.220Z,102026.33
2017-04-21T00:31:52.247Z,102024.61
2017-04-21T00:32:53.459Z,102032.42
2017-04-21T00:33:54.714Z,102023.72
2017-04-21T00:34:55.978Z,102022.41
2017-04-21T00:35:57.074Z,102026.31
2017-04-21T00:36:58.288Z,102019.41
2017-04-21T00:37:59.613Z,102022.87
2017-04-21T00:39:00.702Z,102018.95
2017-04-21T00:40:01.856Z,102022.87
2017-04-21T00:41:03.004Z,102020.69
2017-04-21T00:42:04.540Z,102021.13
2017-04-21T00:43:05.706Z,102018.52
2017-04-21T00:44:06.861Z,102018.52
2017-04-21T00:45:08.071Z,102015.91
2017-04-21T00:46:09.030Z,102015.45
2017-04-21T00:47:09.956Z,102015.91
2017-04-21T00:48:11.288Z,102013.73
2017-04-21T00:49:13.296Z,102013.76
2017-04-21T00:50:14.411Z,102013.75
2017-04-21T00:51:15.479Z,102002.47
2017-04-21T00:52:16.657Z,102006.78
2017-04-21T00:53:17.739Z,102006.35
2017-04-21T00:54:18.669Z,102004.18
2017-04-21T00:55:19.623Z,102000.30
2017-04-21T00:56:20.543Z,101998.09
2017-04-21T00:57:21.809Z,101995.08
2017-04-21T00:58:23.004Z,101991.16
2017-04-21T00:59:24.330Z,101995.09
2017-04-21T01:00:25.467Z,101992.48
2017-04-21T01:01:26.440Z,101995.08
2017-04-21T01:02:27.575Z,101995.96
2017-04-21T01:03:28.633Z,101990.77
2017-04-21T01:04:30.235Z,101996.39
2017-04-21T01:05:31.270Z,101992.04
2017-04-21T01:06:32.353Z,101986.37
2017-04-21T01:07:34.188Z,101984.66
2017-04-21T01:08:35.496Z,101985.53
2017-04-21T01:09:36.365Z,101985.97
2017-04-21T01:10:37.642Z,101986.39
2017-04-21T01:11:38.777Z,101983.78
2017-04-21T01:12:39.877Z,101981.63
2017-04-21T01:13:41.100Z,101978.16
2017-04-21T01:14:42.067Z,101979.45
2017-04-21T01:15:43.308Z,101977.28
2017-04-21T01:16:44.441Z,101975.96
2017-04-21T01:17:45.592Z,101973.82
2017-04-21T01:18:46.786Z,101976.41
2017-04-21T01:19:47.967Z,101969.91
2017-04-21T01:20:49.118Z,101975.98
2017-04-21T01:21:50.417Z,101973.78
2017-04-21T01:22:51.560Z,101975.54
2017-04-21T01:23:52.908Z,101973.80
2017-04-21T01:24:54.185Z,101969.92
2017-04-21T01:25:55.585Z,101972.94
2017-04-21T01:26:56.879Z,101975.97
2017-04-21T01:27:58.302Z,101973.36
2017-04-21T01:28:59.288Z,101972.06
2017-04-21T01:30:00.254Z,101973.38
2017-04-21T01:31:01.453Z,101969.91
2017-04-21T01:32:02.481Z,101968.59
2017-04-21T01:33:03.991Z,101968.18
2017-04-21T01:34:05.027Z,101970.77
2017-04-21T01:35:06.168Z,101962.95
2017-04-21T01:36:07.354Z,101969.03
2017-04-21T01:37:17.152Z,101967.72
2017-04-21T01:38:19.445Z,101965.98
2017-04-21T01:39:20.492Z,101966.00
2017-04-21T01:40:21.741Z,101965.98
2017-04-21T01:41:22.959Z,101965.11
2017-04-21T01:42:23.985Z,101965.13
2017-04-21T01:43:24.962Z,101968.59
2017-04-21T01:44:26.143Z,101968.61
2017-04-21T01:45:27.389Z,101963.40
2017-04-21T01:46:28.680Z,101960.80
2017-04-21T01:47:29.997Z,101958.19
2017-04-21T01:48:32.437Z,101954.28
2017-04-21T01:49:33.547Z,101950.80
2017-04-21T01:50:34.792Z,101951.23
2017-04-21T01:51:36.075Z,101955.15
2017-04-21T01:52:37.025Z,101953.84
2017-04-21T01:53:39.233Z,101949.52
2017-04-21T01:54:40.528Z,101950.37
2017-04-21T01:55:41.833Z,101950.35
2017-04-21T01:56:42.755Z,101949.08
2017-04-21T01:57:43.865Z,101947.76
2017-04-21T01:58:45.068Z,101943.00
2017-04-21T01:59:46.191Z,101940.81
2017-04-21T02:00:47.309Z,101942.98
2017-04-21T02:01:48.384Z,101943.84
2017-04-21T02:02:49.745Z,101937.78
2017-04-21T02:03:50.876Z,101936.91
2017-04-21T02:04:52.001Z,101940.40
2017-04-21T02:05:53.228Z,101937.77
2017-04-21T02:06:54.452Z,101935.62
2017-04-21T02:07:55.834Z,101940.83
2017-04-21T02:08:56.946Z,101933.43
2017-04-21T02:09:58.268Z,101936.48
2017-04-21T02:10:59.250Z,101932.16
2017-04-21T02:12:00.388Z,101930.84
2017-04-21T02:13:01.704Z,101932.58
2017-04-21T02:14:02.746Z,101934.31
2017-04-21T02:15:03.790Z,101934.30
2017-04-21T02:16:05.141Z,101933.43
2017-04-21T02:17:06.417Z,101929.11
2017-04-21T02:18:07.630Z,101935.16
2017-04-21T02:19:08.894Z,101929.09
2017-04-21T02:20:10.093Z,101927.34
2017-04-21T02:21:11.436Z,101929.09
2017-04-21T02:22:12.832Z,101929.11
2017-04-21T02:23:14.817Z,101922.15
2017-04-21T02:24:15.833Z,101924.31
2017-04-21T02:25:16.981Z,101920.84
2017-04-21T02:26:18.066Z,101920.41
2017-04-21T02:27:19.245Z,101919.52
2017-04-21T02:28:20.129Z,101921.69
2017-04-21T02:29:21.295Z,101916.05
2017-04-21T02:30:22.848Z,101918.22
2017-04-21T02:31:23.831Z,101917.38
2017-04-21T02:32:24.813Z,101913.91
2017-04-21T02:33:25.938Z,101914.34
2017-04-21T02:34:27.123Z,101918.22
2017-04-21T02:35:28.272Z,101913.05
2017-04-21T02:36:29.452Z,101912.58
2017-04-21T02:37:30.639Z,101914.77
2017-04-21T02:38:31.869Z,101913.89
2017-04-21T02:39:33.087Z,101911.73
2017-04-21T02:40:34.306Z,101906.95
2017-04-21T02:41:35.355Z,101904.34
2017-04-21T02:42:36.513Z,101908.24
2017-04-21T02:43:37.512Z,101900.89
2017-04-21T02:44:38.471Z,101910.41
2017-04-21T02:45:39.787Z,101905.19
2017-04-21T02:46:41.011Z,101899.99
2017-04-21T02:47:42.345Z,101896.10
2017-04-21T02:48:43.976Z,101894.38
2017-04-21T02:49:45.179Z,101899.14
2017-04-21T02:50:46.375Z,101893.50
2017-04-21T02:51:47.448Z,101892.62
2017-04-21T02:52:48.400Z,101893.50
2017-04-21T02:53:50.201Z,101894.36
2017-04-21T02:54:51.449Z,101893.05
2017-04-21T02:55:52.656Z,101886.12
2017-04-21T02:56:53.896Z,101888.71
2017-04-21T02:57:55.205Z,101889.14
2017-04-21T02:58:56.980Z,101886.13
2017-04-21T02:59:58.292Z,101887.84
2017-04-21T03:00:59.872Z,101884.78
2017-04-21T03:02:01.015Z,101891.73
2017-04-21T03:03:01.990Z,101882.61
2017-04-21T03:04:02.920Z,101883.92
2017-04-21T03:05:04.043Z,101886.97
2017-04-21T03:06:05.511Z,101878.71
2017-04-21T03:07:06.735Z,101880.47
2017-04-21T03:08:08.019Z,101881.77
2017-04-21T03:09:09.244Z,101881.34
2017-04-21T03:10:10.588Z,101878.30
2017-04-21T03:11:11.585Z,101883.08
2017-04-21T03:12:12.743Z,101877.00
2017-04-21T03:13:14.225Z,101870.50
2017-04-21T03:14:15.611Z,101875.70
2017-04-21T03:15:16.770Z,101878.30
2017-04-21T03:16:17.889Z,101876.98
2017-04-21T03:17:18.974Z,101880.03
2017-04-21T03:18:19.993Z,101875.27
2017-04-21T03:19:20.996Z,101871.36
2017-04-21T03:20:22.268Z,101872.22
2017-04-21T03:21:23.280Z,101873.97
2017-04-21T03:22:24.440Z,101872.22
2017-04-21T03:23:25.700Z,101871.35
2017-04-21T03:24:26.941Z,101870.50
2017-04-21T03:25:28.099Z,101872.22
2017-04-21T03:26:29.579Z,101877.84
2017-04-21T03:27:30.827Z,101872.23
2017-04-21T03:28:32.014Z,101876.54
2017-04-21T03:29:33.233Z,101876.13
2017-04-21T03:30:34.575Z,101871.78
2017-04-21T03:31:35.715Z,101870.92
2017-04-21T03:32:36.935Z,101872.23
2017-04-21T03:33:38.672Z,101870.05
2017-04-21T03:34:39.960Z,101871.36
2017-04-21T03:35:41.201Z,101866.15
2017-04-21T03:36:42.407Z,101864.83
2017-04-21T03:37:43.484Z,101864.41
2017-04-21T03:38:44.689Z,101863.55
2017-04-21T03:39:45.990Z,101866.14
2017-04-21T03:40:47.144Z,101871.80
2017-04-21T03:41:48.140Z,101869.61
2017-04-21T03:42:49.809Z,101865.30
2017-04-21T03:43:51.302Z,101871.79
2017-04-21T03:44:52.442Z,101866.58
2017-04-21T03:45:53.724Z,101868.33
2017-04-21T03:46:54.963Z,101859.23
2017-04-21T03:47:56.529Z,101862.27
2017-04-21T03:48:57.853Z,101863.13
2017-04-21T03:49:59.009Z,101862.27
2017-04-21T03:51:00.227Z,101867.91
2017-04-21T03:52:01.908Z,101860.09
2017-04-21T03:53:03.926Z,101854.89
2017-04-21T03:54:05.156Z,101865.28
2017-04-21T03:55:06.315Z,101860.94
2017-04-21T03:56:07.666Z,101863.13
2017-04-21T03:57:09.019Z,101856.19
2017-04-21T03:58:10.283Z,101860.95
2017-04-21T03:59:11.816Z,101863.09
2017-04-21T04:00:13.172Z,101865.29
2017-04-21T04:01:14.855Z,101857.91
2017-04-21T04:02:16.051Z,101863.96
2017-04-21T04:03:17.216Z,101860.06
2017-04-21T04:04:18.508Z,101859.63
2017-04-21T04:05:19.667Z,101861.37
2017-04-21T04:06:20.782Z,101856.15
2017-04-21T04:07:21.950Z,101860.94
2017-04-21T04:08:23.176Z,101859.20
2017-04-21T04:09:24.448Z,101857.91
2017-04-21T04:10:25.708Z,101857.06
2017-04-21T04:11:26.735Z,101853.59
2017-04-21T04:12:27.970Z,101854.45
2017-04-21T04:13:29.568Z,101854.00
2017-04-21T04:14:30.645Z,101857.47
2017-04-21T04:15:31.833Z,101852.28
2017-04-21T04:16:32.925Z,101851.83
2017-04-21T04:17:33.882Z,101851.84
2017-04-21T04:18:34.925Z,101850.95
2017-04-21T04:19:36.152Z,101847.91
2017-04-21T04:20:37.232Z,101846.59
2017-04-21T04:21:38.405Z,101848.75
2017-04-21T04:22:39.889Z,101844.89
2017-04-21T04:23:41.160Z,101845.31
2017-04-21T04:24:42.377Z,101844.87
2017-04-21T04:25:43.812Z,101837.95
2017-04-21T04:26:45.013Z,101845.73
2017-04-21T04:27:46.308Z,101843.56
2017-04-21T04:28:52.365Z,101842.28
2017-04-21T04:29:57.129Z,101846.17
2017-04-21T04:31:01.687Z,101845.31
2017-04-21T04:32:06.137Z,101844.45
2017-04-21T04:33:10.397Z,101853.57
2017-04-21T04:34:11.806Z,101852.71
2017-04-21T04:35:13.039Z,101843.56
2017-04-21T04:36:14.260Z,101844.88
2017-04-21T04:37:15.448Z,101851.40
2017-04-21T04:38:16.667Z,101845.34
2017-04-21T04:39:17.930Z,101837.53
2017-04-21T04:40:19.105Z,101844.47
2017-04-21T04:41:20.471Z,101845.75
2017-04-21T04:42:22.652Z,101842.30
2017-04-21T04:43:25.700Z,101840.57
2017-04-21T04:44:32.589Z,101844.45
2017-04-21T04:45:36.428Z,101839.72
2017-04-21T04:46:39.820Z,101839.70
2017-04-21T04:47:41.903Z,101839.25
2017-04-21T04:48:44.901Z,101841.42
2017-04-21T04:49:46.183Z,101838.40
2017-04-21T04:50:47.271Z,101844.05
2017-04-21T04:51:48.423Z,101846.22
2017-04-21T04:52:49.941Z,101839.25
2017-04-21T04:53:51.415Z,101845.76
2017-04-21T04:54:52.774Z,101842.30
2017-04-21T04:55:54.743Z,101845.76
2017-04-21T04:56:56.834Z,101846.20
2017-04-21T04:57:58.489Z,101842.73
2017-04-21T04:58:59.714Z,101846.21
2017-04-21T05:00:01.092Z,101844.48
2017-04-21T05:01:03.558Z,101846.22
2017-04-21T05:02:04.663Z,101844.91
2017-04-21T05:03:05.780Z,101839.70
2017-04-21T05:04:06.916Z,101845.78
2017-04-21T05:05:07.970Z,101849.67
2017-04-21T05:06:09.103Z,101847.52
2017-04-21T05:07:10.364Z,101842.31
2017-04-21T05:08:11.625Z,101843.63
2017-04-21T05:09:13.120Z,101847.53
2017-04-21T05:10:14.380Z,101844.91
2017-04-21T05:11:15.690Z,101846.67
2017-04-21T05:12:16.821Z,101845.80
2017-04-21T05:13:18.013Z,101841.47
2017-04-21T05:14:19.252Z,101848.40
2017-04-21T05:15:20.544Z,101842.33
2017-04-21T05:16:21.888Z,101846.66
2017-04-21T05:17:22.974Z,101847.09
2017-04-21T05:18:23.967Z,101841.91
2017-04-21T05:19:25.154Z,101848.82
2017-04-21T05:20:26.467Z,101846.24
2017-04-21T05:21:28.091Z,101846.24
2017-04-21T05:22:29.300Z,101848.41
2017-04-21T05:23:30.542Z,101847.11
2017-04-21T05:24:31.755Z,101842.77
2017-04-21T05:25:32.847Z,101843.64
2017-04-21T05:26:34.066Z,101841.05
2017-04-21T05:27:35.014Z,101841.05
2017-04-21T05:28:36.240Z,101842.32
2017-04-21T05:29:37.611Z,101840.61
2017-04-21T05:30:40.234Z,101839.73
2017-04-21T05:31:41.167Z,101838.86
2017-04-21T05:32:42.377Z,101832.37
2017-04-21T05:33:43.614Z,101829.33
2017-04-21T05:34:44.855Z,101834.98
2017-04-21T05:35:58.879Z,101832.38
2017-04-21T05:37:04.397Z,101825.42
2017-04-21T05:38:11.483Z,101826.28
2017-04-21T05:39:14.216Z,101831.49
2017-04-21T05:40:15.308Z,101834.97
2017-04-21T05:41:16.675Z,101834.54
2017-04-21T05:42:18.011Z,101832.36
2017-04-21T05:43:19.301Z,101838.88
2017-04-21T05:44:20.381Z,101832.35
2017-04-21T05:45:21.880Z,101829.75
2017-04-21T05:46:23.731Z,101838.42
2017-04-21T05:47:24.893Z,101832.34
2017-04-21T05:48:26.219Z,101831.50
2017-04-21T05:49:27.376Z,101834.53
2017-04-21T05:50:29.401Z,101833.65
2017-04-21T05:51:32.613Z,101830.61
2017-04-21T05:52:38.873Z,101835.84
2017-04-21T05:53:43.241Z,101826.30
2017-04-21T05:54:44.882Z,101831.94
2017-04-21T05:55:45.972Z,101832.80
2017-04-21T05:56:47.692Z,101833.66
2017-04-21T05:57:53.035Z,101828.88
2017-04-21T05:59:00.539Z,101834.09
2017-04-21T06:00:07.473Z,101830.61
2017-04-21T06:01:08.528Z,101829.73
2017-04-21T06:02:09.527Z,101832.34
2017-04-21T06:03:10.644Z,101827.58
2017-04-21T06:04:11.763Z,101833.64
2017-04-21T06:05:12.892Z,101826.73
2017-04-21T06:06:14.026Z,101828.45
2017-04-21T06:07:15.171Z,101829.77
2017-04-21T06:08:16.338Z,101827.14
2017-04-21T06:09:17.428Z,101826.30
2017-04-21T06:10:18.530Z,101828.03
2017-04-21T06:11:19.632Z,101831.92
2017-04-21T06:12:20.738Z,101823.25
2017-04-21T06:13:21.944Z,101836.70
2017-04-21T06:14:23.165Z,101835.84
2017-04-21T06:15:24.335Z,101828.01
2017-04-21T06:16:25.452Z,101828.02
2017-04-21T06:17:26.650Z,101831.92
2017-04-21T06:18:28.204Z,101826.72
2017-04-21T06:19:29.297Z,101829.31
2017-04-21T06:20:30.814Z,101830.16
2017-04-21T06:21:31.785Z,101831.90
2017-04-21T06:22:33.461Z,101831.91
2017-04-21T06:23:34.802Z,101829.73
2017-04-21T06:24:35.916Z,101834.48
2017-04-21T06:25:37.031Z,101834.06
2017-04-21T06:26:37.963Z,101829.72
2017-04-21T06:27:38.887Z,101831.45
2017-04-21T06:28:40.032Z,101834.91
2017-04-21T06:29:41.160Z,101827.94
2017-04-21T06:30:42.292Z,101830.97
2017-04-21T06:31:43.424Z,101831.86
2017-04-21T06:32:44.587Z,101829.25
2017-04-21T06:33:45.755Z,101830.13
2017-04-21T06:34:46.843Z,101826.63
2017-04-21T06:35:47.923Z,101831.41
2017-04-21T06:36:49.070Z,101827.06
2017-04-21T06:37:50.242Z,101824.91
2017-04-21T06:38:51.249Z,101823.58
2017-04-21T06:39:52.422Z,101820.09
2017-04-21T06:40:53.554Z,101823.11
2017-04-21T06:41:55.066Z,101828.77
2017-04-21T06:42:56.631Z,101823.58
2017-04-21T06:43:58.057Z,101819.22
2017-04-21T06:44:59.454Z,101812.69
2017-04-21T06:46:00.357Z,101811.38
2017-04-21T06:47:01.277Z,101812.24
2017-04-21T06:48:02.491Z,101812.24
2017-04-21T06:49:03.580Z,101812.18
2017-04-21T06:50:04.741Z,101811.75
2017-04-21T06:51:05.871Z,101813.05
2017-04-21T06:52:07.022Z,101816.53
2017-04-21T06:53:08.175Z,101813.06
2017-04-21T06:54:09.292Z,101809.59
2017-04-21T06:55:10.776Z,101811.33
2017-04-21T06:56:11.728Z,101816.97
2017-04-21T06:57:13.200Z,101814.77
2017-04-21T06:58:14.400Z,101811.27
2017-04-21T06:59:15.513Z,101816.91
2017-04-21T07:00:16.633Z,101814.70
2017-04-21T07:01:17.725Z,101815.58
2017-04-21T07:02:18.964Z,101812.97
2017-04-21T07:03:19.998Z,101817.72
2017-04-21T07:04:21.178Z,101813.41
2017-04-21T07:05:22.320Z,101820.31
2017-04-21T07:06:23.336Z,101816.83
2017-04-21T07:07:24.461Z,101818.97
2017-04-21T07:08:25.544Z,101813.31
2017-04-21T07:09:26.708Z,101815.92
2017-04-21T07:10:27.803Z,101815.03
2017-04-21T07:11:28.905Z,101818.09
2017-04-21T07:12:29.989Z,101809.37
2017-04-21T07:13:31.086Z,101821.06
2017-04-21T07:14:32.527Z,101815.42
2017-04-21T07:15:33.633Z,101820.20
2017-04-21T07:16:34.723Z,101811.45
2017-04-21T07:17:35.830Z,101812.30
2017-04-21T07:18:36.971Z,101816.66
2017-04-21T07:19:38.094Z,101810.10
2017-04-21T07:20:39.257Z,101813.56
2017-04-21T07:21:40.443Z,101810.02
2017-04-21T07:22:41.384Z,101812.20
2017-04-21T07:23:42.527Z,101804.78
2017-04-21T07:24:43.610Z,101812.56
2017-04-21T07:25:44.791Z,101807.80
2017-04-21T07:26:45.716Z,101805.14
2017-04-21T07:27:46.853Z,101807.29
2017-04-21T07:28:47.972Z,101800.33
2017-04-21T07:29:49.356Z,101798.09
2017-04-21T07:30:50.518Z,101799.77
2017-04-21T07:31:51.729Z,101801.45
2017-04-21T07:32:52.907Z,101798.03
2017-04-21T07:33:54.025Z,101801.89
2017-04-21T07:34:55.113Z,101798.41
2017-04-21T07:36:57.635Z,101795.80
2017-04-21T07:37:58.827Z,101797.94
2017-04-21T07:38:59.756Z,101801.42
2017-04-21T07:40:00.840Z,101796.63
2017-04-21T07:41:01.805Z,101792.28
2017-04-21T07:42:02.910Z,101792.25
2017-04-21T07:43:03.943Z,101796.10
2017-04-21T07:44:05.065Z,101787.39
2017-04-21T07:45:06.620Z,101791.72
2017-04-21T07:46:07.628Z,101792.11
2017-04-21T07:47:08.828Z,101789.47
2017-04-21T07:48:09.966Z,101793.82
2017-04-21T07:49:11.056Z,101786.78
2017-04-21T07:50:12.211Z,101795.46
2017-04-21T07:51:13.396Z,101787.95
2017-04-21T07:52:14.545Z,101790.99
2017-04-21T07:53:15.726Z,101791.86
2017-04-21T07:54:16.846Z,101788.34
2017-04-21T07:55:17.817Z,101788.63
2017-04-21T07:56:18.995Z,101785.00
2017-04-21T07:57:20.089Z,101787.41
2017-04-21T07:58:21.255Z,101791.33
2017-04-21T07:59:22.376Z,101786.74
2017-04-21T08:00:23.685Z,101791.10
2017-04-21T08:01:24.781Z,101784.76
2017-04-21T08:02:25.908Z,101780.41
2017-04-21T08:03:27.081Z,101777.78
2017-04-21T08:04:28.187Z,101783.30
2017-04-21T08:05:29.343Z,101780.03
2017-04-21T08:06:30.451Z,101777.16
2017-04-21T08:07:31.587Z,101777.91
2017-04-21T08:08:32.737Z,101771.31
2017-04-21T08:09:33.844Z,101767.92
2017-04-21T08:10:35.012Z,101772.52
2017-04-21T08:11:36.108Z,101769.06
2017-04-21T08:12:37.226Z,101762.80
2017-04-21T08:13:38.407Z,101765.45
2017-04-21T08:14:39.509Z,101763.59
2017-04-21T08:15:40.627Z,101766.08
2017-04-21T08:16:41.810Z,101760.66
2017-04-21T08:17:42.958Z,101763.72
2017-04-21T08:18:44.178Z,101762.86
2017-04-21T08:19:45.340Z,101761.17
2017-04-21T08:20:46.388Z,101757.31
2017-04-21T08:21:47.550Z,101766.22
2017-04-21T08:22:48.730Z,101758.47
2017-04-21T08:23:49.977Z,101760.97
2017-04-21T08:24:51.215Z,101760.41
2017-04-21T08:25:52.373Z,101753.00
2017-04-21T08:26:53.525Z,101755.66
2017-04-21T08:27:54.667Z,101756.22
2017-04-21T08:28:56.381Z,101755.66
2017-04-21T08:29:58.330Z,101760.54
2017-04-21T08:30:59.485Z,101755.34
2017-04-21T08:32:01.008Z,101753.08
2017-04-21T08:33:02.136Z,101752.58
2017-04-21T08:34:03.425Z,101758.29
2017-04-21T08:35:04.607Z,101753.72
2017-04-21T08:36:06.143Z,101754.24
2017-04-21T08:37:07.229Z,101753.35
2017-04-21T08:38:08.180Z,101747.75
2017-04-21T08:39:09.376Z,101747.86
2017-04-21T08:40:10.675Z,101746.12
2017-04-21T08:41:11.819Z,101741.87
2017-04-21T08:42:12.760Z,101739.24
2017-04-21T08:43:13.878Z,101737.86
2017-04-21T08:44:15.045Z,101740.84
2017-04-21T08:45:16.288Z,101737.50
2017-04-21T08:46:17.482Z,101746.30
2017-04-21T08:47:18.665Z,101737.15
2017-04-21T08:48:19.801Z,101743.17
2017-04-21T08:49:20.928Z,101735.39
2017-04-21T08:50:22.149Z,101733.09
2017-04-21T08:51:23.735Z,101727.80
2017-04-21T08:52:24.867Z,101731.87
2017-04-21T08:53:26.003Z,101725.19
2017-04-21T08:54:27.589Z,101725.83
2017-04-21T08:55:28.831Z,101719.25
2017-04-21T08:56:29.911Z,101718.54
2017-04-21T08:57:30.945Z,101720.66
2017-04-21T08:58:32.098Z,101717.30
2017-04-21T08:59:33.232Z,101720.77
2017-04-21T09:00:34.495Z,101722.33
2017-04-21T09:01:35.645Z,101723.65
2017-04-21T09:02:36.572Z,101719.98
2017-04-21T09:03:37.712Z,101713.83
2017-04-21T09:04:38.828Z,101713.09
2017-04-21T09:05:40.063Z,101712.23
2017-04-21T09:06:41.301Z,101716.86
2017-04-21T09:07:42.475Z,101712.56
2017-04-21T09:08:43.431Z,101709.66
2017-04-21T09:09:44.582Z,101710.93
2017-04-21T09:10:45.767Z,101713.89
2017-04-21T09:11:46.945Z,101707.23
2017-04-21T09:12:48.100Z,101706.81
2017-04-21T09:13:49.291Z,101704.43
2017-04-21T09:14:50.589Z,101696.80
2017-04-21T09:15:51.749Z,101692.80
2017-04-21T09:16:52.853Z,101700.30
2017-04-21T09:17:54.088Z,101698.83
2017-04-21T09:18:55.290Z,101699.88
2017-04-21T09:19:56.520Z,101696.27
2017-04-21T09:20:57.816Z,101702.59
2017-04-21T09:21:59.028Z,101701.44
2017-04-21T09:23:00.197Z,101689.55
2017-04-21T09:24:01.345Z,101697.93
2017-04-21T09:25:02.312Z,101691.55
2017-04-21T09:26:03.600Z,101692.66
2017-04-21T09:27:04.703Z,101691.03
2017-04-21T09:28:05.883Z,101690.93
2017-04-21T09:29:06.968Z,101690.32
2017-04-21T09:30:08.477Z,101693.33
2017-04-21T09:32:04.257Z,101689.16
2017-04-21T09:32:11.223Z,101689.63
2017-04-21T09:33:12.414Z,101689.72
2017-04-21T09:34:33.408Z,101689.44
2017-04-21T09:35:14.569Z,101687.73
2017-04-21T09:36:15.717Z,101691.41
2017-04-21T09:37:17.249Z,101693.45
2017-04-21T09:38:18.403Z,101688.77
2017-04-21T09:39:19.576Z,101694.52
2017-04-21T09:40:20.717Z,101686.65
2017-04-21T09:41:21.825Z,101684.78
2017-04-21T09:42:22.968Z,101680.35
2017-04-21T09:43:23.937Z,101685.61
2017-04-21T09:44:24.899Z,101678.23
2017-04-21T09:45:26.001Z,101681.84
2017-04-21T09:46:27.099Z,101675.50
2017-04-21T09:47:28.221Z,101681.22
2017-04-21T09:48:29.360Z,101680.63
2017-04-21T09:49:30.564Z,101668.02
2017-04-21T09:50:32.138Z,101667.56
2017-04-21T09:51:33.362Z,101662.28
2017-04-21T09:52:34.628Z,101663.11
2017-04-21T09:54:14.224Z,101665.42
2017-04-21T09:56:05.055Z,101669.51
2017-04-21T09:59:18.162Z,101655.28
2017-04-21T09:59:48.182Z,101663.06
2017-04-21T09:59:59.154Z,101648.67
2017-04-21T10:00:06.710Z,101660.00
2017-04-21T10:04:31.647Z,101658.88
2017-04-21T10:05:05.337Z,101652.44
2017-04-21T10:05:50.878Z,101652.77
2017-04-21T10:07:09.583Z,101655.11
2017-04-21T10:07:13.296Z,101659.88
2017-04-21T10:07:27.537Z,101664.20
2017-04-21T10:07:53.171Z,101657.36
2017-04-21T10:07:56.539Z,101658.75
2017-04-21T10:07:56.696Z,101653.48
2017-04-21T10:08:54.326Z,101654.09
2017-04-21T10:09:55.461Z,101640.40
2017-04-21T10:10:56.825Z,101647.91
2017-04-21T10:11:58.209Z,101648.17
2017-04-21T10:12:59.362Z,101635.20
2017-04-21T10:14:00.504Z,101639.15
2017-04-21T10:15:01.639Z,101641.71
2017-04-21T10:16:02.937Z,101628.84
2017-04-21T10:17:03.939Z,101627.55
2017-04-21T10:18:05.125Z,101632.91
2017-04-21T10:19:06.269Z,101626.78
2017-04-21T10:20:07.403Z,101635.77
2017-04-21T10:21:08.586Z,101626.34
2017-04-21T10:22:10.136Z,101631.83
2017-04-21T10:23:11.255Z,101622.60
2017-04-21T10:24:12.353Z,101622.58
2017-04-21T10:25:13.326Z,101620.75
2017-04-21T10:26:14.441Z,101615.38
2017-04-21T10:27:15.835Z,101625.81
2017-04-21T10:28:17.008Z,101621.15
2017-04-21T10:29:18.025Z,101624.20
2017-04-21T10:30:19.221Z,101623.71
2017-04-21T10:31:20.351Z,101621.80
2017-04-21T10:32:21.574Z,101621.53
2017-04-21T10:33:22.797Z,101613.83
2017-04-21T10:34:23.916Z,101613.34
2017-04-21T10:35:25.014Z,101617.95
2017-04-21T10:36:26.252Z,101611.83
2017-04-21T10:37:27.406Z,101607.17
2017-04-21T10:38:28.653Z,101606.30
2017-04-21T10:39:29.762Z,101607.69
2017-04-21T10:40:31.054Z,101607.03
2017-04-21T10:41:32.170Z,101601.83
2017-04-21T10:42:33.409Z,101593.42
2017-04-21T10:43:34.629Z,101602.08
2017-04-21T10:44:35.830Z,101599.41
2017-04-21T10:45:36.971Z,101594.33
2017-04-21T10:46:38.001Z,101594.13
2017-04-21T10:47:39.203Z,101595.37
2017-04-21T10:48:40.523Z,101589.48
2017-04-21T10:49:41.682Z,101597.72
2017-04-21T10:50:42.844Z,101601.85
2017-04-21T10:51:43.998Z,101596.19
2017-04-21T10:52:45.152Z,101597.16
2017-04-21T10:53:46.395Z,101595.28
2017-04-21T10:54:47.529Z,101587.43
2017-04-21T10:55:48.707Z,101589.54
2017-04-21T10:56:49.941Z,101586.48
2017-04-21T10:57:51.147Z,101595.86
2017-04-21T10:58:52.507Z,101587.14
2017-04-21T10:59:53.639Z,101590.54
2017-04-21T11:00:54.838Z,101594.10
2017-04-21T11:01:56.175Z,101585.28
2017-04-21T11:02:57.727Z,101579.11
2017-04-21T11:03:59.007Z,101585.98
2017-04-21T11:05:00.132Z,101581.42
2017-04-21T11:06:01.406Z,101576.84
2017-04-21T11:07:02.589Z,101580.16
2017-04-21T11:08:03.725Z,101573.80
2017-04-21T11:09:05.369Z,101577.73
2017-04-21T11:10:06.757Z,101568.98
2017-04-21T11:11:07.919Z,101576.30
2017-04-21T11:12:09.014Z,101574.25
2017-04-21T11:13:09.940Z,101570.19
2017-04-21T11:14:11.159Z,101571.69
2017-04-21T11:15:12.288Z,101570.36
2017-04-21T11:16:13.416Z,101562.38
2017-04-21T11:17:14.570Z,101563.75
2017-04-21T11:18:15.758Z,101556.16
2017-04-21T11:19:16.954Z,101566.00
2017-04-21T11:20:18.169Z,101562.05
2017-04-21T11:21:19.373Z,101569.16
2017-04-21T11:22:20.362Z,101560.34
2017-04-21T11:23:21.947Z,101566.09
2017-04-21T11:24:23.135Z,101562.31
2017-04-21T11:25:24.649Z,101560.58
2017-04-21T11:26:25.751Z,101560.13
2017-04-21T11:27:26.883Z,101555.63
2017-04-21T11:28:28.031Z,101552.41
2017-04-21T11:29:29.303Z,101548.47
2017-04-21T11:30:30.973Z,101557.19
2017-04-21T11:31:32.091Z,101551.83
2017-04-21T11:32:33.224Z,101554.68
2017-04-21T11:33:34.603Z,101551.09
2017-04-21T11:34:35.809Z,101549.11
2017-04-21T11:35:37.019Z,101549.42
2017-04-21T11:36:38.155Z,101544.59
2017-04-21T11:37:39.316Z,101542.87
2017-04-21T11:38:40.439Z,101540.00
2017-04-21T11:39:41.600Z,101535.51
2017-04-21T11:40:43.104Z,101540.29